createdAt,value
2023-01-06T00:01:17.394Z,101748.81
2023-01-06T00:03:48.108Z,101756.97
2023-01-06T00:06:15.565Z,101743.50
2023-01-06T00:08:42.958Z,101759.25
2023-01-06T00:11:12.989Z,101760.81
2023-01-06T00:13:41.332Z,101765.41
2023-01-06T00:16:14.082Z,101763.50
2023-01-06T00:18:42.260Z,101760.50
2023-01-06T00:21:11.078Z,101761.31
2023-01-06T00:23:39.067Z,101758.63
2023-01-06T00:26:08.519Z,101760.03
2023-01-06T00:28:36.286Z,101757.06
2023-01-06T00:31:14.861Z,101755.16
2023-01-06T00:33:42.932Z,101757.06
2023-01-06T00:36:12.299Z,101764.09
2023-01-06T00:38:40.255Z,101761.41
2023-01-06T00:41:31.032Z,101756.81
2023-01-06T00:43:59.435Z,101758.66
2023-01-06T00:46:29.622Z,101755.94
2023-01-06T00:49:06.899Z,101759.19
2023-01-06T00:51:37.406Z,101755.97
2023-01-06T00:54:06.933Z,101762.53
2023-01-06T00:56:42.777Z,101765.50
2023-01-06T00:59:12.705Z,101765.22
2023-01-06T01:01:40.533Z,101765.72
2023-01-06T01:04:08.805Z,101767.59
2023-01-06T01:06:37.467Z,101764.09
2023-01-06T01:09:06.785Z,101760.59
2023-01-06T01:11:53.678Z,101775.22
2023-01-06T01:14:21.257Z,101774.38
2023-01-06T01:16:48.932Z,101769.22
2023-01-06T01:19:17.289Z,101771.38
2023-01-06T01:21:46.600Z,101775.16
2023-01-06T01:24:15.121Z,101774.84
2023-01-06T01:26:42.838Z,101779.19
2023-01-06T01:29:15.234Z,101771.06
2023-01-06T01:31:43.308Z,101781.34
2023-01-06T01:34:12.122Z,101781.38
2023-01-06T01:36:44.159Z,101774.84
2023-01-06T01:39:12.001Z,101778.13
2023-01-06T01:41:39.804Z,101783.00
2023-01-06T01:44:45.141Z,101790.84
2023-01-06T01:47:17.054Z,101783.81
2023-01-06T01:49:47.777Z,101780.53
2023-01-06T01:52:16.230Z,101777.50
2023-01-06T01:54:44.926Z,101778.59
2023-01-06T01:57:19.395Z,101782.09
2023-01-06T01:59:47.558Z,101777.28
2023-01-06T02:02:17.162Z,101785.91
2023-01-06T02:04:49.049Z,101781.00
2023-01-06T02:07:17.228Z,101784.31
2023-01-06T02:10:02.945Z,101781.06
2023-01-06T02:12:32.601Z,101779.72
2023-01-06T02:14:59.937Z,101775.09
2023-01-06T02:17:36.483Z,101775.88
2023-01-06T02:20:14.982Z,101772.63
2023-01-06T02:23:19.987Z,101765.00
2023-01-06T02:25:59.814Z,101770.69
2023-01-06T02:28:39.323Z,101767.72
2023-01-06T02:31:19.154Z,101760.13
2023-01-06T02:33:55.087Z,101753.63
2023-01-06T02:36:44.980Z,101751.94
2023-01-06T02:39:46.861Z,101759.56
2023-01-06T02:42:26.168Z,101755.78
2023-01-06T02:45:29.175Z,101751.47
2023-01-06T02:48:08.828Z,101754.50
2023-01-06T02:50:56.970Z,101755.03
2023-01-06T02:53:34.048Z,101760.16
2023-01-06T02:56:03.204Z,101754.19
2023-01-06T02:58:39.680Z,101756.94
2023-01-06T03:01:17.274Z,101749.88
2023-01-06T03:03:48.444Z,101749.06
2023-01-06T03:06:18.687Z,101753.34
2023-01-06T03:08:48.753Z,101746.28
2023-01-06T03:11:18.391Z,101747.66
2023-01-06T03:14:08.637Z,101744.41
2023-01-06T03:16:36.060Z,101752.81
2023-01-06T03:19:03.774Z,101755.28
2023-01-06T03:21:36.732Z,101747.94
2023-01-06T03:24:06.999Z,101748.47
2023-01-06T03:26:36.420Z,101746.03
2023-01-06T03:29:08.937Z,101737.91
2023-01-06T03:32:01.486Z,101747.69
2023-01-06T03:34:43.488Z,101742.84
2023-01-06T03:37:27.142Z,101753.06
2023-01-06T03:40:03.699Z,101743.06
2023-01-06T03:42:58.572Z,101752.84
2023-01-06T03:45:35.422Z,101745.25
2023-01-06T03:48:20.278Z,101742.84
2023-01-06T03:50:47.630Z,101741.75
2023-01-06T03:53:26.049Z,101734.94
2023-01-06T03:56:02.468Z,101731.19
2023-01-06T03:58:31.178Z,101735.28
2023-01-06T04:00:59.001Z,101730.66
2023-01-06T04:03:26.539Z,101736.00
2023-01-06T04:05:54.662Z,101730.31
2023-01-06T04:08:22.727Z,101730.59
2023-01-06T04:10:51.134Z,101731.97
2023-01-06T04:13:18.528Z,101731.41
2023-01-06T04:15:46.056Z,101731.69
2023-01-06T04:18:13.630Z,101733.59
2023-01-06T04:20:42.954Z,101729.28
2023-01-06T04:23:15.565Z,101730.38
2023-01-06T04:25:45.088Z,101729.28
2023-01-06T04:28:39.448Z,101730.09
2023-01-06T04:31:09.215Z,101725.47
2023-01-06T04:33:37.109Z,101725.91
2023-01-06T04:36:06.884Z,101726.75
2023-01-06T04:38:35.268Z,101737.13
2023-01-06T04:41:02.663Z,101742.00
2023-01-06T04:43:29.991Z,101734.06
2023-01-06T04:46:00.730Z,101724.09
2023-01-06T04:48:28.282Z,101734.91
2023-01-06T04:51:10.082Z,101730.09
2023-01-06T04:53:40.100Z,101734.72
2023-01-06T04:56:10.184Z,101741.78
2023-01-06T04:58:38.214Z,101744.19
2023-01-06T05:01:09.492Z,101740.44
2023-01-06T05:03:37.584Z,101749.56
2023-01-06T05:06:11.648Z,101760.94
2023-01-06T05:08:40.839Z,101757.41
2023-01-06T05:11:17.585Z,101753.09
2023-01-06T05:13:45.686Z,101746.13
2023-01-06T05:16:17.972Z,101753.16
2023-01-06T05:18:45.700Z,101763.94
2023-01-06T05:21:13.123Z,101762.81
2023-01-06T05:23:40.822Z,101774.78
2023-01-06T05:26:09.646Z,101781.00
2023-01-06T05:28:36.973Z,101775.34
2023-01-06T05:31:05.426Z,101776.97
2023-01-06T05:33:33.694Z,101776.97
2023-01-06T05:36:07.299Z,101774.78
2023-01-06T05:38:34.852Z,101782.41
2023-01-06T05:41:02.437Z,101788.34
2023-01-06T05:43:30.170Z,101795.41
2023-01-06T05:45:57.591Z,101793.78
2023-01-06T05:48:27.466Z,101800.31
2023-01-06T05:51:03.732Z,101798.66
2023-01-06T05:53:33.039Z,101805.19
2023-01-06T05:56:01.801Z,101800.03
2023-01-06T05:58:29.552Z,101798.97
2023-01-06T06:00:56.871Z,101803.28
2023-01-06T06:03:24.330Z,101812.78
2023-01-06T06:05:51.733Z,101813.88
2023-01-06T06:08:19.319Z,101819.28
2023-01-06T06:10:46.668Z,101817.97
2023-01-06T06:13:14.015Z,101825.50
2023-01-06T06:15:41.424Z,101825.22
2023-01-06T06:18:08.852Z,101823.06
2023-01-06T06:20:36.231Z,101827.38
2023-01-06T06:23:03.857Z,101826.88
2023-01-06T06:25:31.506Z,101836.06
2023-01-06T06:27:59.752Z,101825.22
2023-01-06T06:30:27.213Z,101835.53
2023-01-06T06:32:54.512Z,101830.41
2023-01-06T06:35:21.898Z,101836.63
2023-01-06T06:37:49.324Z,101835.56
2023-01-06T06:40:16.761Z,101836.13
2023-01-06T06:42:44.104Z,101841.81
2023-01-06T06:45:11.603Z,101831.50
2023-01-06T06:47:39.016Z,101843.44
2023-01-06T06:50:06.622Z,101849.97
2023-01-06T06:52:34.033Z,101846.97
2023-01-06T06:55:01.391Z,101848.59
2023-01-06T06:57:28.834Z,101852.38
2023-01-06T06:59:56.236Z,101855.69
2023-01-06T07:02:23.633Z,101863.25
2023-01-06T07:04:51.093Z,101869.75
2023-01-06T07:07:18.486Z,101874.91
2023-01-06T07:09:45.817Z,101874.63
2023-01-06T07:12:13.079Z,101877.34
2023-01-06T07:14:40.390Z,101875.72
2023-01-06T07:17:07.803Z,101874.09
2023-01-06T07:19:35.195Z,101871.13
2023-01-06T07:22:02.593Z,101881.94
2023-01-06T07:24:29.983Z,101891.44
2023-01-06T07:26:57.365Z,101887.91
2023-01-06T07:29:24.687Z,101890.34
2023-01-06T07:31:52.080Z,101890.09
2023-01-06T07:34:19.377Z,101903.91
2023-01-06T07:36:46.759Z,101906.34
2023-01-06T07:39:14.099Z,101910.69
2023-01-06T07:41:41.493Z,101917.72
2023-01-06T07:44:12.258Z,101921.78
2023-01-06T07:46:39.689Z,101920.97
2023-01-06T07:49:07.055Z,101923.41
2023-01-06T07:51:34.475Z,101925.56
2023-01-06T07:54:02.054Z,101939.97
2023-01-06T07:56:29.412Z,101942.94
2023-01-06T07:58:56.830Z,101938.63
2023-01-06T08:01:24.335Z,101941.31
2023-01-06T08:03:51.873Z,101944.03
2023-01-06T08:06:19.269Z,101941.31
2023-01-06T08:08:46.609Z,101944.56
2023-01-06T08:11:14.076Z,101952.16
2023-01-06T08:13:41.517Z,101949.44
2023-01-06T08:16:10.210Z,101941.84
2023-01-06T08:18:38.255Z,101950.81
2023-01-06T08:21:10.527Z,101953.22
2023-01-06T08:23:38.147Z,101958.91
2023-01-06T08:26:09.181Z,101965.13
2023-01-06T08:28:36.690Z,101956.72
2023-01-06T08:31:04.349Z,101964.56
2023-01-06T08:33:31.691Z,101960.22
2023-01-06T08:36:00.270Z,101972.97
2023-01-06T08:38:28.726Z,101964.53
2023-01-06T08:40:57.550Z,101974.03
2023-01-06T08:43:24.903Z,101969.38
2023-01-06T08:45:52.923Z,101970.72
2023-01-06T08:48:20.269Z,101973.44
2023-01-06T08:50:47.616Z,101973.69
2023-01-06T08:53:14.974Z,101968.22
2023-01-06T08:55:42.374Z,101970.91
2023-01-06T08:58:10.295Z,101979.88
2023-01-06T09:00:40.888Z,101979.88
2023-01-06T09:03:08.648Z,101989.63
2023-01-06T09:05:36.023Z,101989.06
2023-01-06T09:08:03.795Z,101993.69
2023-01-06T09:10:31.301Z,101998.31
2023-01-06T09:12:58.944Z,101997.44
2023-01-06T09:15:26.292Z,101997.69
2023-01-06T09:17:53.641Z,101995.75
2023-01-06T09:20:21.050Z,102001.69
2023-01-06T09:22:48.397Z,102008.75
2023-01-06T09:25:15.982Z,102012.50
2023-01-06T09:27:43.387Z,102011.41
2023-01-06T09:30:11.331Z,102012.50
2023-01-06T09:32:38.708Z,102016.59
2023-01-06T09:35:06.728Z,102013.06
2023-01-06T09:37:34.029Z,102017.66
2023-01-06T09:40:01.379Z,102018.50
2023-01-06T09:43:20.003Z,102024.44
2023-01-06T09:45:53.662Z,102029.41
2023-01-06T09:48:39.011Z,102023.94
2023-01-06T09:51:08.018Z,102031.47
2023-01-06T09:53:40.989Z,102017.06
2023-01-06T09:56:15.094Z,102020.84
2023-01-06T09:58:53.111Z,102023.56
2023-01-06T10:01:28.108Z,102023.78
2023-01-06T10:03:57.496Z,102016.44
2023-01-06T10:06:32.763Z,102018.31
2023-01-06T10:09:21.906Z,102011.28
2023-01-06T10:11:57.206Z,102017.84
2023-01-06T10:14:39.181Z,102009.34
2023-01-06T10:17:18.780Z,101995.47
2023-01-06T10:19:55.320Z,102001.47
2023-01-06T10:23:07.620Z,102004.38
2023-01-06T10:25:41.511Z,102000.53
2023-01-06T10:28:14.641Z,101994.38
2023-01-06T10:30:47.389Z,101994.88
2023-01-06T10:36:00.405Z,101986.69
2023-01-06T10:38:37.346Z,101982.22
2023-01-06T10:41:33.904Z,101971.94
2023-01-06T10:44:01.534Z,101971.81
2023-01-06T10:46:35.969Z,101971.22
2023-01-06T10:49:06.146Z,101965.63
2023-01-06T10:51:44.531Z,101968.72
2023-01-06T10:54:22.611Z,101964.06
2023-01-06T10:56:56.750Z,101956.38
2023-01-06T10:59:24.155Z,101954.91
2023-01-06T11:01:57.277Z,101953.41
2023-01-06T11:04:28.012Z,101947.09
2023-01-06T11:06:59.747Z,101939.75
2023-01-06T11:09:32.574Z,101941.84
2023-01-06T11:12:03.059Z,101944.56
2023-01-06T11:14:33.328Z,101941.56
2023-01-06T11:17:03.822Z,101927.56
2023-01-06T11:19:40.844Z,101932.03
2023-01-06T11:22:40.595Z,101928.41
2023-01-06T11:25:20.147Z,101928.41
2023-01-06T11:28:09.135Z,101918.81
2023-01-06T11:30:43.580Z,101918.75
2023-01-06T11:33:18.027Z,101916.59
2023-01-06T11:35:46.493Z,101908.50
2023-01-06T11:38:16.639Z,101914.94
2023-01-06T11:40:46.992Z,101910.75
2023-01-06T11:43:33.677Z,101912.66
2023-01-06T11:46:05.475Z,101909.56
2023-01-06T11:48:47.639Z,101914.06
2023-01-06T11:51:48.134Z,101910.44
2023-01-06T11:54:37.197Z,101904.22
2023-01-06T11:57:23.558Z,101902.38
2023-01-06T12:00:22.950Z,101903.38
2023-01-06T12:03:18.300Z,101896.06
2023-01-06T12:06:13.092Z,101895.97
2023-01-06T12:09:04.944Z,101894.75
2023-01-06T12:11:46.107Z,101887.50
2023-01-06T12:14:28.147Z,101886.81
2023-01-06T12:17:22.088Z,101876.41
2023-01-06T12:20:01.429Z,101872.81
2023-01-06T12:22:44.949Z,101872.25
2023-01-06T12:25:18.681Z,101864.03
2023-01-06T12:27:50.869Z,101860.78
2023-01-06T12:30:21.698Z,101856.06
2023-01-06T12:32:52.807Z,101849.75
2023-01-06T12:35:26.367Z,101856.88
2023-01-06T12:37:58.372Z,101852.72
2023-01-06T12:40:25.631Z,101856.88
2023-01-06T12:43:12.810Z,101861.38
2023-01-06T12:45:56.528Z,101857.75
2023-01-06T12:48:35.979Z,101850.56
2023-01-06T12:51:23.807Z,101858.84
2023-01-06T12:54:02.156Z,101859.09
2023-01-06T12:56:35.353Z,101857.41
2023-01-06T12:59:30.297Z,101858.97
2023-01-06T13:02:24.009Z,101854.69
2023-01-06T13:05:25.250Z,101851.91
2023-01-06T13:08:07.524Z,101855.16
2023-01-06T13:10:41.914Z,101852.22
2023-01-06T13:13:30.695Z,101852.66
2023-01-06T13:16:04.808Z,101840.56
2023-01-06T13:19:12.430Z,101848.72
2023-01-06T13:21:40.960Z,101842.31
2023-01-06T13:24:14.334Z,101848.78
2023-01-06T13:27:26.199Z,101845.03
2023-01-06T13:29:53.732Z,101840.06
2023-01-06T13:32:39.344Z,101840.06
2023-01-06T13:35:15.692Z,101840.91
2023-01-06T13:38:14.192Z,101830.09
2023-01-06T13:40:44.593Z,101831.44
2023-01-06T13:43:23.955Z,101830.03
2023-01-06T13:45:58.407Z,101831.16
2023-01-06T13:48:32.414Z,101832.47
2023-01-06T13:51:04.770Z,101832.75
2023-01-06T13:53:40.837Z,101837.91
2023-01-06T13:56:14.114Z,101832.13
2023-01-06T13:58:46.422Z,101837.47
2023-01-06T14:01:34.482Z,101847.00
2023-01-06T14:04:26.686Z,101856.09
2023-01-06T14:06:54.830Z,101859.31
2023-01-06T14:09:22.499Z,101858.56
2023-01-06T14:11:50.111Z,101861.06
2023-01-06T14:14:25.137Z,101860.59
2023-01-06T14:16:54.761Z,101867.69
2023-01-06T14:19:32.350Z,101862.41
2023-01-06T14:22:18.683Z,101858.44
2023-01-06T14:24:52.921Z,101855.22
2023-01-06T14:27:48.196Z,101851.03
2023-01-06T14:30:36.901Z,101846.47
2023-01-06T14:33:07.298Z,101843.75
2023-01-06T14:35:42.158Z,101845.91
2023-01-06T14:38:34.404Z,101849.22
2023-01-06T14:41:06.643Z,101856.53
2023-01-06T14:43:37.860Z,101853.19
2023-01-06T14:46:21.484Z,101848.00
2023-01-06T14:49:23.743Z,101849.53
2023-01-06T14:51:57.047Z,101852.63
2023-01-06T14:54:36.928Z,101855.66
2023-01-06T14:57:05.949Z,101856.22
2023-01-06T14:59:33.848Z,101851.84
2023-01-06T15:02:12.035Z,101853.19
2023-01-06T15:04:39.891Z,101855.41
2023-01-06T15:07:20.899Z,101850.81
2023-01-06T15:09:50.969Z,101858.94
2023-01-06T15:12:30.727Z,101854.56
2023-01-06T15:15:22.704Z,101851.25
2023-01-06T15:17:51.815Z,101862.34
2023-01-06T15:20:19.457Z,101845.84
2023-01-06T15:22:49.681Z,101852.06
2023-01-06T15:25:21.488Z,101850.47
2023-01-06T15:27:49.741Z,101852.69
2023-01-06T15:30:19.416Z,101851.28
2023-01-06T15:32:48.334Z,101848.16
2023-01-06T15:35:20.268Z,101845.16
2023-01-06T15:37:48.011Z,101842.94
2023-01-06T15:40:20.432Z,101854.63
2023-01-06T15:42:47.865Z,101844.84
2023-01-06T15:45:33.359Z,101850.56
2023-01-06T15:48:09.100Z,101857.13
2023-01-06T15:50:37.087Z,101850.47
2023-01-06T15:53:14.891Z,101853.25
2023-01-06T15:55:44.248Z,101855.66
2023-01-06T15:58:22.596Z,101859.50
2023-01-06T16:00:59.010Z,101859.69
2023-01-06T16:03:28.919Z,101860.50
2023-01-06T16:06:11.254Z,101861.97
2023-01-06T16:08:40.980Z,101863.75
2023-01-06T16:11:37.200Z,101862.28
2023-01-06T16:14:07.137Z,101863.66
2023-01-06T16:16:42.885Z,101871.25
2023-01-06T16:19:18.142Z,101869.69
2023-01-06T16:21:45.783Z,101870.50
2023-01-06T16:24:27.472Z,101875.97
2023-01-06T16:27:02.341Z,101876.81
2023-01-06T16:29:37.170Z,101893.66
2023-01-06T16:32:38.498Z,101890.34
2023-01-06T16:35:14.672Z,101894.09
2023-01-06T16:37:42.723Z,101882.50
2023-01-06T16:40:13.052Z,101889.00
2023-01-06T16:42:42.961Z,101891.19
2023-01-06T16:45:13.391Z,101884.41
2023-01-06T16:47:41.522Z,101886.31
2023-01-06T16:50:39.748Z,101886.53
2023-01-06T16:53:09.834Z,101885.72
2023-01-06T16:55:41.288Z,101884.41
2023-01-06T16:58:14.280Z,101884.94
2023-01-06T17:00:44.064Z,101883.59
2023-01-06T17:03:15.284Z,101893.13
2023-01-06T17:05:43.270Z,101894.75
2023-01-06T17:08:15.903Z,101895.03
2023-01-06T17:10:44.316Z,101890.97
2023-01-06T17:13:34.665Z,101893.06
2023-01-06T17:16:11.135Z,101901.81
2023-01-06T17:18:49.944Z,101894.22
2023-01-06T17:21:21.556Z,101895.31
2023-01-06T17:23:50.760Z,101893.13
2023-01-06T17:26:19.911Z,101897.19
2023-01-06T17:28:49.165Z,101894.47
2023-01-06T17:31:29.437Z,101896.13
2023-01-06T17:33:58.751Z,101897.25
2023-01-06T17:36:37.269Z,101897.78
2023-01-06T17:39:32.634Z,101908.91
2023-01-06T17:42:21.948Z,101908.34
2023-01-06T17:44:56.662Z,101910.31
2023-01-06T17:47:57.293Z,101911.72
2023-01-06T17:50:33.953Z,101909.81
2023-01-06T17:53:36.640Z,101903.75
2023-01-06T17:56:07.213Z,101903.25
2023-01-06T17:58:40.992Z,101896.00
2023-01-06T18:01:12.076Z,101906.44
2023-01-06T18:03:43.732Z,101909.97
2023-01-06T18:06:26.296Z,101900.25
2023-01-06T18:09:00.394Z,101903.53
2023-01-06T18:11:39.635Z,101907.84
2023-01-06T18:14:18.222Z,101904.84
2023-01-06T18:16:47.560Z,101903.22
2023-01-06T18:19:47.392Z,101914.63
2023-01-06T18:22:21.328Z,101915.44
2023-01-06T18:25:00.155Z,101921.72
2023-01-06T18:27:33.486Z,101923.03
2023-01-06T18:30:16.542Z,101924.09
2023-01-06T18:32:45.628Z,101928.50
2023-01-06T18:35:25.024Z,101924.41
2023-01-06T18:37:52.391Z,101933.94
2023-01-06T18:40:24.741Z,101933.94
2023-01-06T18:42:53.933Z,101926.91
2023-01-06T18:45:22.945Z,101934.44
2023-01-06T18:47:55.135Z,101933.16
2023-01-06T18:50:22.482Z,101933.13
2023-01-06T18:52:51.846Z,101932.84
2023-01-06T18:55:26.939Z,101936.97
2023-01-06T18:57:57.697Z,101938.28
2023-01-06T19:00:45.748Z,101943.22
2023-01-06T19:03:49.995Z,101942.63
2023-01-06T19:06:17.262Z,101937.22
2023-01-06T19:08:51.592Z,101942.13
2023-01-06T19:11:23.809Z,101945.88
2023-01-06T19:13:55.134Z,101946.44
2023-01-06T19:16:25.429Z,101937.81
2023-01-06T19:18:54.229Z,101934.81
2023-01-06T19:21:22.859Z,101939.16
2023-01-06T19:24:26.709Z,101942.09
2023-01-06T19:26:56.442Z,101942.88
2023-01-06T19:29:28.546Z,101950.22
2023-01-06T19:31:58.920Z,101935.56
2023-01-06T19:34:26.915Z,101942.13
2023-01-06T19:36:58.142Z,101941.59
2023-01-06T19:39:34.361Z,101935.56
2023-01-06T19:42:27.099Z,101934.81
2023-01-06T19:44:58.442Z,101935.59
2023-01-06T19:47:31.618Z,101933.72
2023-01-06T19:50:16.010Z,101937.22
2023-01-06T19:52:43.427Z,101938.63
2023-01-06T19:55:30.157Z,101935.38
2023-01-06T19:58:17.929Z,101939.88
2023-01-06T20:00:49.940Z,101936.34
2023-01-06T20:03:32.542Z,101936.97
2023-01-06T20:06:00.059Z,101939.13
2023-01-06T20:08:28.004Z,101930.75
2023-01-06T20:10:55.371Z,101933.22
2023-01-06T20:13:22.818Z,101935.44
2023-01-06T20:15:50.181Z,101934.00
2023-01-06T20:18:17.537Z,101934.53
2023-01-06T20:20:44.931Z,101935.63
2023-01-06T20:23:12.346Z,101937.22
2023-01-06T20:25:39.839Z,101929.13
2023-01-06T20:28:07.676Z,101927.22
2023-01-06T20:30:35.055Z,101935.66
2023-01-06T20:33:02.646Z,101926.44
2023-01-06T20:35:30.039Z,101934.50
2023-01-06T20:37:57.444Z,101927.22
2023-01-06T20:40:24.902Z,101929.69
2023-01-06T20:42:52.209Z,101934.56
2023-01-06T20:45:20.351Z,101929.19
2023-01-06T20:47:47.691Z,101930.78
2023-01-06T20:50:15.086Z,101928.66
2023-01-06T20:52:45.290Z,101924.56
2023-01-06T20:55:13.049Z,101923.50
2023-01-06T20:57:40.481Z,101922.94
2023-01-06T21:00:10.948Z,101924.59
2023-01-06T21:02:39.636Z,101928.94
2023-01-06T21:05:08.430Z,101930.00
2023-01-06T21:07:35.757Z,101925.84
2023-01-06T21:10:04.136Z,101925.63
2023-01-06T21:12:31.978Z,101918.59
2023-01-06T21:14:59.379Z,101919.97
2023-01-06T21:17:26.733Z,101920.28
2023-01-06T21:19:55.385Z,101911.59
2023-01-06T21:22:22.926Z,101923.75
2023-01-06T21:24:50.293Z,101921.03
2023-01-06T21:27:17.753Z,101912.88
2023-01-06T21:29:45.317Z,101912.88
2023-01-06T21:32:12.892Z,101915.34
2023-01-06T21:34:40.463Z,101912.06
2023-01-06T21:37:07.834Z,101910.72
2023-01-06T21:39:35.525Z,101911.00
2023-01-06T21:42:21.556Z,101903.66
2023-01-06T21:44:49.135Z,101905.84
2023-01-06T21:47:16.704Z,101902.84
2023-01-06T21:49:46.875Z,101908.53
2023-01-06T21:52:15.878Z,101905.78
2023-01-06T21:54:44.717Z,101913.88
2023-01-06T21:57:12.607Z,101907.31
2023-01-06T21:59:40.107Z,101915.44
2023-01-06T22:02:08.596Z,101902.81
2023-01-06T22:04:36.044Z,101913.38
2023-01-06T22:07:09.064Z,101905.00
2023-01-06T22:09:39.094Z,101915.09
2023-01-06T22:12:08.680Z,101915.88
2023-01-06T22:14:36.319Z,101913.47
2023-01-06T22:17:03.987Z,101912.41
2023-01-06T22:19:31.942Z,101918.63
2023-01-06T22:22:01.496Z,101913.94
2023-01-06T22:24:31.033Z,101913.75
2023-01-06T22:26:58.363Z,101909.41
2023-01-06T22:29:25.769Z,101911.28
2023-01-06T22:31:53.228Z,101905.34
2023-01-06T22:34:20.625Z,101909.38
2023-01-06T22:36:47.913Z,101903.94
2023-01-06T22:39:15.343Z,101900.91
2023-01-06T22:41:42.639Z,101908.53
2023-01-06T22:44:10.075Z,101909.16
2023-01-06T22:46:37.418Z,101906.69
2023-01-06T22:49:05.223Z,101907.50
2023-01-06T22:51:32.812Z,101908.88
2023-01-06T22:54:00.214Z,101913.72
2023-01-06T22:56:27.657Z,101917.28
2023-01-06T22:58:55.056Z,101915.91
2023-01-06T23:01:22.734Z,101917.53
2023-01-06T23:03:50.320Z,101916.19
2023-01-06T23:06:17.963Z,101914.28
2023-01-06T23:08:58.891Z,101909.97
2023-01-06T23:11:28.224Z,101908.59
2023-01-06T23:13:57.774Z,101912.72
2023-01-06T23:16:30.230Z,101909.69
2023-01-06T23:18:57.875Z,101914.56
2023-01-06T23:21:26.902Z,101915.38
2023-01-06T23:23:54.433Z,101907.78
2023-01-06T23:26:28.268Z,101909.69
2023-01-06T23:28:56.802Z,101900.50
2023-01-06T23:31:27.001Z,101900.50
2023-01-06T23:33:56.806Z,101896.72
2023-01-06T23:36:27.358Z,101900.00
2023-01-06T23:38:55.941Z,101904.31
2023-01-06T23:41:26.998Z,101903.22
2023-01-06T23:43:55.479Z,101905.69
2023-01-06T23:46:25.907Z,101902.72
2023-01-06T23:48:54.230Z,101905.16
2023-01-06T23:51:25.133Z,101902.72
2023-01-06T23:53:53.090Z,101894.00
2023-01-06T23:56:22.843Z,101898.94
2023-01-06T23:58:53.624Z,101901.09
